Terminal Aerodrome Forecast
Issued by NWS

Home | Current Version | Previous Version | Text Only | Print | Product List | Glossary On
Versions: 1 2 3 4 5 6 7 8 9 10 11 12 13 14 15 16 17 18
624
FTUS43 KMQT 071738
TAFSAW
TAF
KSAW 071738Z 0718/0818 24019KT P6SM -SN BKN020
     FM072200 26012KT P6SM BKN030
     FM081100 29012KT 2SM -SHSN OVC015
     FM081500 34011G18KT 1 1/2SM -SHSN OVC015=

USA.gov is the U.S. government's official web portal to all federal, state and local government web resources and services.